Clarkson, New York
Current Conditions -  °F | °C
As of 6:04 PM on Wednesday 26 Nov 2014 (Local Time) from KROC Reporting Station
Light Snow Light Snow  
Wind Chill: 23°   Ceiling: 1500
Heat Index: 32°   Visibility: 2.5mi
Dew Point: 29°   Wind: 12mph
Humidity: 88%   Direction: 40°NE
Pressure: 30.08"   Gusts: NA
Location:  43.23°N, 77.93°W
Report Text: KROC 262304Z 04010KT 2 1/2SM -SN BR SCT008 BKN015 OVC026 00/M02 A3008 RMK AO2 SFC VIS 3 P0000 T00001017
Loading
Personal Weather Stations






























Interactive Weather Map New forecast layout! Learn more

10-Day Weather Forecast

Advertisements
Track Severe Weather on mobile